Greenfield, MO

12:48 PM CST on December 18, 2014 (GMT -0600)
Atkinson Municipal | Change Station
CLOSE
Current Station
Airport
Location: Pittsburg,
Elevation: 951 ft
Nearby Weather Stations

Elev 951 ft 37.45 °N, 94.73 °W | Updated 13 minutes ago

Overcast
Overcast
38 °F
Feels Like 38 °F
N
0
Wind Variable Wind from North

Today
High -- | Low -- °F
--% Chance of Precip.
Yesterday
High -- | Low -- °F
Precip. -- in
7:24 AM 4:59 PM
Waning Crescent, 13% visible
Pressure 30.17 in
Visibility 4.0 miles
Clouds Overcast 200 ft
Dew Point 38 °F
Humidity 100%
Rainfall 0.04 in
Snow Depth Not available.
UV 1 out of 12
Pollen .60 out of 12
Air Quality Not available.
Flu Activity Not available.
METAR KPTS 181835Z AUTO 00000KT 4SM BR OVC002 04/04 A3017 RMK AO2 T00350036

More Conditions Fewer Conditions

Pressure 30.17 in
Visibility 4.0 miles
Clouds Overcast 200 ft
Dew Point 38 °F
Humidity 100%
Rainfall 0.04 in
Snow Depth Not available.
UV 1 out of 12
Pollen .60 out of 12
Air Quality Not available.
Flu Activity Not available.
METAR KPTS 181835Z AUTO 00000KT 4SM BR OVC002 04/04 A3017 RMK AO2 T00350036

More Conditions Fewer Conditions

10-Day Weather Forecast

Almanac

Astronomy

Dec. 18, 2014 Rise Set
Actual Time
Civil Twilight
Nautical Twilight
Astronomical Twilight
Moon
Length of Visible Light
Length of Day
Tomorrow will be .
, % of the Moon is Illuminated

Today's Extremes

State Highs State Lows

Community

WunderPhotos

Upload Photos

1,778,973 photos uploaded!

WunderBlogs® & News

Nearby

Air Quality

  Air Quality AQ Index Pollutant
Not available.

Snow Depth

Station Depth Elevation

Earthquake Activity

City Distance Mag. Time & Date
Minimum magnitude displayed is 2.5.

Coastal Water Temperatures

Place Temperature

Nearby Weather Stations